Time;durP1;ratioP1;P1;durP2;ratioP2;P2;SDS_P1;SDS_P2;PMS_P1;PMS_P2;Temp;Humidity;BMP_temperature;BMP_pressure;BME280_temperature;BME280_humidity;BME280_pressure;Samples;Min_cycle;Max_cycle;Signal;HPM_P1;HPM_P2
2023/09/03 00:00:35;;;;;;;3.42;1.10;;;17.40;99.90;;;;;;5094661;28;20192;-81
2023/09/03 00:03:07;;;;;;;2.97;1.10;;;17.50;99.90;;;;;;5092802;28;20196;-77
2023/09/03 00:05:40;;;;;;;3.13;1.10;;;17.50;99.90;;;;;;5094453;28;20716;-80
2023/09/03 00:08:11;;;;;;;4.63;1.20;;;17.40;99.90;;;;;;5092466;28;20192;-80
2023/09/03 00:10:42;;;;;;;2.30;1.10;;;17.40;99.90;;;;;;5086316;28;20246;-81
2023/09/03 00:13:13;;;;;;;3.13;1.10;;;17.50;99.90;;;;;;5091122;28;20202;-77
2023/09/03 00:15:43;;;;;;;3.10;1.10;;;17.70;99.90;;;;;;5094035;28;20220;-77
2023/09/03 00:18:14;;;;;;;4.93;0.90;;;17.70;99.90;;;;;;5079746;28;20716;-80
2023/09/03 00:20:58;;;;;;;2.53;1.08;;;17.80;99.90;;;;;;5088683;28;20261;-79
2023/09/03 00:23:29;;;;;;;1.70;0.85;;;17.90;99.90;;;;;;5090108;28;20192;-76
2023/09/03 00:25:59;;;;;;;1.65;0.80;;;17.80;99.90;;;;;;5093375;28;20207;-80
2023/09/03 00:28:31;;;;;;;1.00;0.60;;;18.00;99.90;;;;;;5089426;28;20274;-83
2023/09/03 00:31:06;;;;;;;3.30;1.52;;;18.20;99.90;;;;;;5094298;28;20188;-75
2023/09/03 00:33:36;;;;;;;2.38;0.80;;;18.30;99.90;;;;;;5090887;28;20197;-75
2023/09/03 00:36:12;;;;;;;1.27;0.70;;;18.50;99.90;;;;;;5094153;28;20302;-76
2023/09/03 00:38:43;;;;;;;2.03;0.75;;;18.60;99.90;;;;;;5092496;28;20291;-76
2023/09/03 00:41:14;;;;;;;3.63;0.85;;;18.70;99.90;;;;;;5093455;28;20199;-76
2023/09/03 00:43:45;;;;;;;2.67;0.80;;;18.70;99.90;;;;;;5093310;28;20200;-77
2023/09/03 00:46:16;;;;;;;1.45;0.80;;;18.60;99.90;;;;;;5094628;28;20263;-76
2023/09/03 00:48:47;;;;;;;1.83;0.75;;;18.80;99.90;;;;;;5093738;28;20552;-74
2023/09/03 00:51:20;;;;;;;1.67;0.60;;;18.90;99.90;;;;;;5093932;28;20687;-76
2023/09/03 00:53:55;;;;;;;1.02;0.50;;;19.10;99.90;;;;;;5094211;28;20203;-79
2023/09/03 00:56:27;;;;;;;1.10;0.45;;;19.30;99.90;;;;;;5094135;28;20219;-76
2023/09/03 00:58:58;;;;;;;2.03;0.60;;;19.20;99.90;;;;;;5093850;28;20188;-76
2023/09/03 01:01:30;;;;;;;0.88;0.57;;;19.30;99.90;;;;;;5092936;28;20214;-78
2023/09/03 01:04:01;;;;;;;3.65;0.95;;;19.40;99.90;;;;;;5094309;28;20284;-76
2023/09/03 01:06:34;;;;;;;2.30;0.52;;;19.50;99.90;;;;;;5094041;28;20189;-82
2023/09/03 01:09:04;;;;;;;3.10;0.60;;;19.40;99.90;;;;;;5093927;28;20640;-80
2023/09/03 01:11:45;;;;;;;3.10;0.65;;;19.40;99.90;;;;;;5093987;28;20196;-78
2023/09/03 01:14:27;;;;;;;1.23;0.50;;;19.50;99.90;;;;;;5093980;28;20671;-82
2023/09/03 01:17:04;;;;;;;1.15;0.40;;;19.50;99.90;;;;;;5093780;28;20240;-75
2023/09/03 01:19:56;;;;;;;1.25;0.63;;;19.70;99.90;;;;;;5093934;28;20565;-86
2023/09/03 01:22:50;;;;;;;1.85;0.47;;;19.90;99.90;;;;;;5093355;28;20557;-84
2023/09/03 01:25:48;;;;;;;1.02;0.43;;;19.80;99.90;;;;;;5091407;28;20212;-83
2023/09/03 01:28:26;;;;;;;2.20;0.40;;;19.50;99.90;;;;;;5093805;28;20188;-86
2023/09/03 01:31:03;;;;;;;0.77;0.30;;;19.40;99.90;;;;;;5092267;28;20200;-86
2023/09/03 01:33:36;;;;;;;1.58;0.30;;;19.20;99.90;;;;;;5093657;28;20647;-84
2023/09/03 01:36:09;;;;;;;2.08;0.55;;;19.10;99.90;;;;;;5093693;28;20302;-84
2023/09/03 01:38:40;;;;;;;3.72;0.70;;;18.90;99.90;;;;;;5093443;28;20271;-83
2023/09/03 01:41:13;;;;;;;1.10;0.60;;;18.80;99.90;;;;;;5093614;28;20529;-85
2023/09/03 01:43:45;;;;;;;3.40;0.50;;;18.40;99.90;;;;;;5089624;28;20656;-84
2023/09/03 01:46:25;;;;;;;2.00;0.70;;;18.30;99.90;;;;;;5078366;28;20596;-84
2023/09/03 01:49:13;;;;;;;2.35;0.80;;;18.20;99.90;;;;;;5092520;28;20388;-85
2023/09/03 01:51:49;;;;;;;2.28;0.60;;;18.10;99.90;;;;;;5089280;28;20262;-84
2023/09/03 01:54:23;;;;;;;1.77;0.75;;;18.10;99.90;;;;;;5090172;28;20195;-84
2023/09/03 01:57:00;;;;;;;1.98;0.70;;;18.00;99.90;;;;;;5092217;28;20223;-76
2023/09/03 01:59:38;;;;;;;3.40;0.90;;;18.00;99.90;;;;;;5091001;28;20196;-85
2023/09/03 02:02:11;;;;;;;2.55;0.90;;;17.90;99.90;;;;;;5088669;28;20195;-85
2023/09/03 02:04:42;;;;;;;2.65;0.80;;;17.90;99.90;;;;;;5088110;28;20203;-84
2023/09/03 02:07:12;;;;;;;2.30;0.60;;;17.80;99.90;;;;;;5092530;28;20562;-85
2023/09/03 02:09:43;;;;;;;1.80;0.60;;;17.80;99.90;;;;;;5092083;28;20230;-84
2023/09/03 02:12:14;;;;;;;2.45;0.43;;;17.80;99.90;;;;;;5086775;28;20216;-82
2023/09/03 02:14:47;;;;;;;2.13;0.70;;;17.80;99.90;;;;;;5089727;28;20200;-84
2023/09/03 02:17:19;;;;;;;2.35;0.70;;;17.80;99.90;;;;;;5091866;28;20216;-83
2023/09/03 02:19:51;;;;;;;1.95;0.68;;;17.80;99.90;;;;;;5085307;28;20308;-85
2023/09/03 02:22:22;;;;;;;2.90;0.75;;;17.80;99.90;;;;;;5088484;28;20198;-86
2023/09/03 02:24:57;;;;;;;4.00;0.80;;;17.80;99.90;;;;;;5083415;28;20200;-86
2023/09/03 02:27:27;;;;;;;7.80;1.20;;;17.90;99.90;;;;;;5092760;28;20200;-86
2023/09/03 02:30:00;;;;;;;2.63;1.20;;;18.00;99.90;;;;;;5090050;28;20191;-86
2023/09/03 02:32:40;;;;;;;3.25;0.80;;;17.90;99.90;;;;;;5071876;28;20192;-76
2023/09/03 02:35:11;;;;;;;3.78;0.77;;;18.00;99.90;;;;;;5075846;28;20266;-77
2023/09/03 02:37:42;;;;;;;2.17;0.70;;;18.10;99.90;;;;;;5095580;28;20219;-89
2023/09/03 02:40:13;;;;;;;6.72;1.23;;;18.20;99.90;;;;;;5096519;28;20555;-90
2023/09/03 02:42:44;;;;;;;1.63;0.80;;;18.30;99.90;;;;;;5097986;28;20195;-88
2023/09/03 02:45:16;;;;;;;2.35;0.95;;;18.20;99.90;;;;;;5097044;28;20298;-87
2023/09/03 02:47:47;;;;;;;3.53;1.58;;;18.20;99.90;;;;;;5094603;28;20200;-89
2023/09/03 02:50:18;;;;;;;4.00;1.08;;;18.20;99.90;;;;;;5096526;28;20547;-87
2023/09/03 02:52:49;;;;;;;3.17;1.10;;;18.20;99.90;;;;;;5097463;28;20239;-85
2023/09/03 02:55:19;;;;;;;2.08;0.90;;;18.30;99.90;;;;;;5096554;28;20188;-85
2023/09/03 02:57:50;;;;;;;2.13;1.02;;;18.60;99.90;;;;;;5096620;28;20226;-86
2023/09/03 03:00:23;;;;;;;1.85;0.70;;;18.80;99.90;;;;;;5096629;28;20192;-87
2023/09/03 03:02:55;;;;;;;2.00;0.98;;;19.10;99.90;;;;;;5096514;28;20636;-87
2023/09/03 03:05:25;;;;;;;5.00;1.20;;;19.10;99.90;;;;;;5096309;28;20627;-81
2023/09/03 03:07:58;;;;;;;2.72;0.95;;;19.20;99.90;;;;;;5096449;28;20208;-88
2023/09/03 03:10:29;;;;;;;4.25;0.90;;;19.20;99.90;;;;;;5096391;28;20275;-86
2023/09/03 03:13:00;;;;;;;2.35;0.88;;;19.10;99.90;;;;;;5096595;28;20208;-86
2023/09/03 03:15:34;;;;;;;2.75;0.80;;;19.00;99.90;;;;;;5096279;28;20655;-85
2023/09/03 03:18:05;;;;;;;2.15;0.90;;;18.90;99.90;;;;;;5095980;28;20602;-85
2023/09/03 03:20:36;;;;;;;5.57;0.90;;;18.80;99.90;;;;;;5096165;28;20564;-85
2023/09/03 03:23:07;;;;;;;3.53;0.80;;;18.90;99.90;;;;;;5096149;28;20257;-85
2023/09/03 03:25:38;;;;;;;3.47;1.00;;;19.00;99.90;;;;;;5095976;28;20202;-85
2023/09/03 03:28:09;;;;;;;1.95;0.60;;;19.20;99.90;;;;;;5096072;28;20188;-89
2023/09/03 03:30:42;;;;;;;1.85;0.57;;;19.20;99.90;;;;;;5096145;28;20184;-86
2023/09/03 03:33:13;;;;;;;2.88;0.80;;;19.30;99.90;;;;;;5080385;28;20185;-87
2023/09/03 03:35:43;;;;;;;2.13;0.85;;;19.40;99.90;;;;;;5075905;28;20199;-90
2023/09/03 03:38:14;;;;;;;5.22;0.90;;;19.40;99.90;;;;;;5075660;28;20223;-87
2023/09/03 03:40:45;;;;;;;4.32;0.70;;;19.30;99.90;;;;;;5075662;28;20656;-87
2023/09/03 03:43:16;;;;;;;3.78;0.70;;;19.30;99.90;;;;;;5075810;28;20564;-91
2023/09/03 03:45:48;;;;;;;3.67;0.80;;;19.30;99.90;;;;;;5075180;28;20652;-75
2023/09/03 03:48:19;;;;;;;3.00;0.55;;;19.30;99.90;;;;;;5075200;28;20189;-77
2023/09/03 03:50:50;;;;;;;1.98;0.65;;;19.20;99.90;;;;;;5075074;28;20569;-79
2023/09/03 03:53:20;;;;;;;2.30;0.50;;;19.20;99.90;;;;;;5075377;28;20193;-75
2023/09/03 03:55:58;;;;;;;3.03;0.60;;;19.20;99.90;;;;;;5075178;28;20566;-75
2023/09/03 03:58:31;;;;;;;2.33;0.63;;;19.10;99.90;;;;;;5075119;28;20749;-78
2023/09/03 04:01:12;;;;;;;3.17;0.60;;;19.00;99.90;;;;;;5075214;28;20567;-77
2023/09/03 04:03:43;;;;;;;1.75;0.70;;;19.00;99.90;;;;;;5074820;28;20189;-77
2023/09/03 04:06:14;;;;;;;2.00;0.65;;;18.90;99.90;;;;;;5074986;28;20290;-76
2023/09/03 04:08:45;;;;;;;3.17;0.70;;;19.00;99.90;;;;;;5075015;28;20197;-75
2023/09/03 04:11:16;;;;;;;1.35;0.60;;;19.00;99.90;;;;;;5074970;28;20714;-75
2023/09/03 04:13:47;;;;;;;3.88;0.57;;;19.10;99.90;;;;;;5080724;28;20563;-75
2023/09/03 04:16:22;;;;;;;2.30;0.60;;;19.00;99.90;;;;;;5094765;28;20203;-75
2023/09/03 04:18:53;;;;;;;1.65;0.55;;;19.00;99.90;;;;;;5094916;28;20191;-75
2023/09/03 04:21:23;;;;;;;2.47;0.50;;;19.10;99.90;;;;;;5094987;28;20195;-76
2023/09/03 04:23:54;;;;;;;4.43;0.63;;;19.10;99.90;;;;;;5095018;28;20275;-76
2023/09/03 04:26:25;;;;;;;4.97;0.60;;;19.10;99.90;;;;;;5094805;28;20199;-77
2023/09/03 04:28:57;;;;;;;1.85;0.45;;;19.10;99.90;;;;;;5094920;28;20227;-76
2023/09/03 04:31:30;;;;;;;5.00;0.60;;;18.90;99.90;;;;;;5094716;28;20194;-88
2023/09/03 04:34:00;;;;;;;3.30;0.50;;;18.80;99.90;;;;;;5094996;28;20274;-78
2023/09/03 04:36:31;;;;;;;2.50;0.60;;;18.70;99.90;;;;;;5094634;28;20271;-92
2023/09/03 04:39:03;;;;;;;1.33;0.60;;;18.80;99.90;;;;;;5095035;28;20218;-88
2023/09/03 04:41:34;;;;;;;2.13;0.40;;;18.70;99.90;;;;;;5094931;28;20726;-77
2023/09/03 04:44:12;;;;;;;1.92;0.60;;;18.80;99.90;;;;;;5094470;28;20227;-75
2023/09/03 04:46:45;;;;;;;1.80;0.57;;;18.80;99.90;;;;;;5094242;28;20199;-75
2023/09/03 04:49:16;;;;;;;2.53;0.63;;;18.70;99.90;;;;;;5094518;28;20188;-76
2023/09/03 04:51:46;;;;;;;2.75;0.60;;;18.70;99.90;;;;;;5094796;28;20786;-90
2023/09/03 04:54:18;;;;;;;5.43;0.80;;;18.60;99.90;;;;;;5094935;28;20199;-89
2023/09/03 04:56:50;;;;;;;4.75;0.70;;;18.60;99.90;;;;;;5093988;28;20305;-90
2023/09/03 04:59:21;;;;;;;1.13;0.50;;;18.70;99.90;;;;;;5094722;28;20198;-90
2023/09/03 05:01:53;;;;;;;3.50;0.50;;;18.70;99.90;;;;;;5094463;28;20252;-88
2023/09/03 05:04:24;;;;;;;2.95;0.40;;;18.60;99.90;;;;;;5094434;28;20199;-85
2023/09/03 05:06:55;;;;;;;1.13;0.50;;;18.60;99.90;;;;;;5094368;28;20204;-76
2023/09/03 05:09:26;;;;;;;3.85;0.50;;;18.60;99.90;;;;;;5094095;28;20238;-75
2023/09/03 05:11:56;;;;;;;1.52;0.38;;;18.60;99.90;;;;;;5094032;28;20202;-80
2023/09/03 05:14:27;;;;;;;2.88;0.60;;;18.50;99.90;;;;;;5093830;28;20194;-74
2023/09/03 05:17:00;;;;;;;1.90;0.50;;;18.30;99.90;;;;;;5093767;28;20303;-75
2023/09/03 05:19:30;;;;;;;1.38;0.40;;;18.20;99.90;;;;;;5093849;28;20188;-75
2023/09/03 05:22:01;;;;;;;2.60;0.50;;;18.10;99.90;;;;;;5093893;28;20192;-77
2023/09/03 05:24:32;;;;;;;2.45;0.45;;;18.10;99.90;;;;;;5093924;28;20192;-75
2023/09/03 05:27:03;;;;;;;3.63;0.50;;;18.30;99.90;;;;;;5093959;28;20192;-82
2023/09/03 05:29:34;;;;;;;1.77;0.47;;;18.30;99.90;;;;;;5093909;28;20193;-88
2023/09/03 05:32:07;;;;;;;2.28;0.68;;;18.40;99.90;;;;;;5076327;28;20287;-89
2023/09/03 05:34:38;;;;;;;2.88;0.60;;;18.40;99.90;;;;;;5093974;28;20210;-90
2023/09/03 05:37:08;;;;;;;1.27;0.30;;;18.30;99.90;;;;;;5094107;28;20216;-87
2023/09/03 05:39:39;;;;;;;0.57;0.38;;;18.30;99.90;;;;;;5093912;28;20634;-86
2023/09/03 05:42:10;;;;;;;1.23;0.45;;;18.30;99.90;;;;;;5093626;28;20279;-84
2023/09/03 05:44:41;;;;;;;2.97;0.50;;;18.10;99.90;;;;;;5093246;28;20261;-84
2023/09/03 05:47:18;;;;;;;1.67;0.40;;;18.00;99.90;;;;;;5093855;28;20189;-86
2023/09/03 05:49:49;;;;;;;1.73;0.60;;;17.90;99.90;;;;;;5091697;28;20693;-82
2023/09/03 05:52:19;;;;;;;3.40;0.50;;;17.90;99.90;;;;;;5092932;28;20232;-87
2023/09/03 05:54:51;;;;;;;2.65;0.60;;;17.90;99.90;;;;;;5080091;28;20193;-83
2023/09/03 05:57:22;;;;;;;3.13;0.80;;;17.90;99.90;;;;;;5092099;28;20242;-87
2023/09/03 05:59:54;;;;;;;2.58;0.80;;;17.90;99.90;;;;;;5080690;28;20560;-84
2023/09/03 06:02:28;;;;;;;2.40;0.60;;;17.80;99.90;;;;;;5087329;28;20238;-85
2023/09/03 06:04:59;;;;;;;1.17;0.40;;;17.70;99.90;;;;;;5092175;28;20196;-86
2023/09/03 06:07:29;;;;;;;1.45;0.65;;;17.70;99.90;;;;;;5092530;28;20188;-88
2023/09/03 06:10:00;;;;;;;2.95;0.60;;;17.60;99.90;;;;;;5095948;28;20220;-87
2023/09/03 06:12:37;;;;;;;2.28;0.30;;;17.50;99.90;;;;;;5077003;28;20192;-83
2023/09/03 06:15:09;;;;;;;1.60;0.55;;;17.60;99.90;;;;;;5088474;28;20199;-87
2023/09/03 06:17:42;;;;;;;1.05;0.50;;;17.60;99.90;;;;;;5092183;28;20675;-85
2023/09/03 06:20:14;;;;;;;2.80;0.40;;;17.60;99.90;;;;;;5096731;28;20223;-87
2023/09/03 06:22:44;;;;;;;1.58;0.50;;;17.60;99.90;;;;;;5096954;28;20270;-90
2023/09/03 06:25:15;;;;;;;1.95;0.40;;;17.60;99.90;;;;;;5078060;28;20193;-85
2023/09/03 06:27:46;;;;;;;1.70;0.40;;;17.60;99.90;;;;;;5076710;28;20193;-84
2023/09/03 06:30:17;;;;;;;1.92;0.50;;;17.60;99.90;;;;;;5076003;28;20196;-88
2023/09/03 06:32:49;;;;;;;2.90;0.55;;;17.50;99.90;;;;;;5095451;28;20189;-88
2023/09/03 06:35:20;;;;;;;2.80;0.50;;;17.40;99.90;;;;;;5093923;28;20201;-88
2023/09/03 06:37:51;;;;;;;3.22;0.43;;;17.40;99.90;;;;;;5076674;28;20219;-88
2023/09/03 06:40:22;;;;;;;2.03;0.70;;;17.30;99.90;;;;;;5076690;28;20193;-88
2023/09/03 06:42:53;;;;;;;3.00;0.60;;;17.20;99.90;;;;;;5076285;28;20231;-84
2023/09/03 06:45:24;;;;;;;3.00;0.73;;;17.20;99.90;;;;;;5076478;28;20195;-85
2023/09/03 06:47:56;;;;;;;1.83;0.60;;;17.00;99.90;;;;;;5092356;28;20203;-89
2023/09/03 06:50:27;;;;;;;1.50;0.60;;;17.00;99.90;;;;;;5097119;28;20188;-87
2023/09/03 06:52:58;;;;;;;1.95;0.50;;;16.90;99.90;;;;;;5096595;28;20200;-88
2023/09/03 06:55:29;;;;;;;2.08;0.60;;;16.90;99.90;;;;;;5096661;28;20189;-88
2023/09/03 06:58:00;;;;;;;3.20;0.80;;;16.90;99.90;;;;;;5096578;28;20311;-87
2023/09/03 07:00:30;;;;;;;0.88;0.50;;;16.70;99.90;;;;;;5096564;28;20188;-81
2023/09/03 07:03:04;;;;;;;4.05;1.90;;;16.70;99.90;;;;;;5096658;28;20188;-88
2023/09/03 07:05:35;;;;;;;2.53;1.50;;;16.70;99.90;;;;;;5097048;28;20237;-89
2023/09/03 07:08:06;;;;;;;3.70;1.10;;;16.70;99.90;;;;;;5096305;28;20184;-88
2023/09/03 07:10:37;;;;;;;2.95;1.10;;;16.70;99.90;;;;;;5096102;28;20204;-85
2023/09/03 07:13:07;;;;;;;5.13;2.70;;;16.60;99.90;;;;;;5096251;28;20188;-88
2023/09/03 07:15:39;;;;;;;4.53;1.13;;;16.60;99.90;;;;;;5096331;28;20195;-88
2023/09/03 07:18:12;;;;;;;3.92;0.82;;;16.50;99.90;;;;;;5095982;28;20679;-86
2023/09/03 07:20:43;;;;;;;5.30;0.70;;;16.40;99.90;;;;;;5094397;28;20577;-88
2023/09/03 07:23:14;;;;;;;3.80;1.05;;;16.30;99.90;;;;;;5095798;28;20654;-87
2023/09/03 07:25:45;;;;;;;2.53;0.63;;;16.30;99.90;;;;;;5095513;28;20540;-86
2023/09/03 07:28:15;;;;;;;2.78;0.68;;;16.20;99.90;;;;;;5094700;28;20230;-88
2023/09/03 07:30:47;;;;;;;2.63;0.90;;;16.20;99.90;;;;;;5094670;28;20196;-89
2023/09/03 07:33:20;;;;;;;4.75;0.90;;;16.10;99.90;;;;;;5094870;28;20200;-87
2023/09/03 07:35:51;;;;;;;2.58;0.90;;;16.10;99.90;;;;;;5093737;28;20196;-87
2023/09/03 07:38:21;;;;;;;2.92;1.05;;;16.00;99.90;;;;;;5094273;28;20211;-89
2023/09/03 07:40:52;;;;;;;2.75;0.90;;;15.90;99.90;;;;;;5094794;28;20189;-90
2023/09/03 07:43:23;;;;;;;3.00;0.98;;;15.90;99.90;;;;;;5095624;28;20241;-88
2023/09/03 07:45:53;;;;;;;2.17;0.80;;;15.80;99.90;;;;;;5093762;28;20189;-86
2023/09/03 07:48:26;;;;;;;3.97;0.90;;;15.80;99.90;;;;;;5095814;28;20192;-89
2023/09/03 07:50:57;;;;;;;2.85;0.70;;;15.80;99.90;;;;;;5095702;28;20236;-87
2023/09/03 07:53:28;;;;;;;4.97;1.35;;;15.70;99.90;;;;;;5095699;28;20212;-87
2023/09/03 07:55:59;;;;;;;3.95;1.27;;;15.70;99.90;;;;;;5095393;28;20228;-88
2023/09/03 07:58:30;;;;;;;4.50;1.02;;;15.60;99.90;;;;;;5095429;28;20287;-90
2023/09/03 08:01:01;;;;;;;3.40;0.80;;;15.60;99.90;;;;;;5094331;28;20204;-89
2023/09/03 08:03:38;;;;;;;2.35;0.98;;;15.60;99.90;;;;;;5090533;28;20196;-88
2023/09/03 08:06:09;;;;;;;2.90;1.13;;;15.50;99.90;;;;;;5095157;28;20556;-89
2023/09/03 08:08:40;;;;;;;4.07;1.45;;;15.50;99.90;;;;;;5095296;28;20185;-77
2023/09/03 08:11:11;;;;;;;2.88;1.20;;;15.40;99.90;;;;;;5095243;28;20648;-77
2023/09/03 08:13:42;;;;;;;4.85;1.17;;;15.40;99.90;;;;;;5094615;28;20192;-81
2023/09/03 08:16:12;;;;;;;4.95;1.30;;;15.40;99.90;;;;;;5090905;28;20185;-80
2023/09/03 08:18:45;;;;;;;2.33;1.02;;;15.30;99.90;;;;;;5094816;28;20230;-77
2023/09/03 08:21:16;;;;;;;3.45;1.23;;;15.30;99.90;;;;;;5082371;28;20191;-85
2023/09/03 08:23:47;;;;;;;4.10;2.20;;;15.30;99.90;;;;;;5093627;28;20198;-83
2023/09/03 08:26:17;;;;;;;4.03;1.48;;;15.30;99.90;;;;;;5094719;28;20522;-85
2023/09/03 08:28:48;;;;;;;2.63;1.15;;;15.20;99.90;;;;;;5084282;28;20667;-86
2023/09/03 08:31:22;;;;;;;4.05;1.48;;;15.20;99.90;;;;;;5091222;28;20589;-86
2023/09/03 08:33:56;;;;;;;2.65;1.50;;;15.20;99.90;;;;;;5076016;28;20302;-81
2023/09/03 08:36:26;;;;;;;3.42;1.80;;;15.20;99.90;;;;;;5094797;28;20283;-87
2023/09/03 08:38:57;;;;;;;2.50;1.48;;;15.10;99.90;;;;;;5089252;28;20714;-90
2023/09/03 08:41:28;;;;;;;6.25;1.88;;;15.10;99.90;;;;;;5093814;28;20275;-83
2023/09/03 08:44:04;;;;;;;4.38;1.40;;;15.10;99.90;;;;;;5094042;28;20228;-90
2023/09/03 08:46:36;;;;;;;2.90;1.40;;;15.10;99.90;;;;;;5081719;28;20196;-89
2023/09/03 08:49:09;;;;;;;3.75;1.70;;;15.00;99.90;;;;;;5094096;28;20203;-90
2023/09/03 08:51:40;;;;;;;6.45;2.33;;;15.00;99.90;;;;;;5093272;28;20235;-89
2023/09/03 08:54:11;;;;;;;5.50;2.17;;;14.90;99.90;;;;;;5094409;28;20208;-89
2023/09/03 08:56:42;;;;;;;6.55;2.42;;;14.90;99.90;;;;;;5091905;28;20196;-90
2023/09/03 08:59:16;;;;;;;3.72;2.17;;;14.80;99.90;;;;;;5094067;28;20220;-91
2023/09/03 09:01:50;;;;;;;3.58;1.75;;;14.80;99.90;;;;;;5083106;28;20279;-90
2023/09/03 09:04:25;;;;;;;2.30;1.40;;;14.80;99.90;;;;;;5094604;28;20196;-91
2023/09/03 09:06:55;;;;;;;1.92;1.23;;;14.70;99.90;;;;;;5091103;28;20200;-91
2023/09/03 09:09:27;;;;;;;3.22;1.38;;;14.70;99.90;;;;;;5093686;28;20196;-91
2023/09/03 09:12:04;;;;;;;2.40;1.50;;;14.60;99.90;;;;;;5094082;28;20192;-91
2023/09/03 09:14:41;;;;;;;4.10;1.75;;;14.60;99.90;;;;;;5092507;28;20682;-90
2023/09/03 09:17:15;;;;;;;4.18;1.80;;;14.60;99.90;;;;;;5094290;28;20283;-92
2023/09/03 09:19:48;;;;;;;3.33;1.60;;;14.60;99.90;;;;;;5093523;28;20303;-91
2023/09/03 09:22:19;;;;;;;3.88;1.70;;;14.50;99.90;;;;;;5093408;28;20206;-90
2023/09/03 09:24:50;;;;;;;3.28;1.73;;;14.50;99.90;;;;;;5092721;28;20280;-91
2023/09/03 09:27:22;;;;;;;3.63;2.20;;;14.40;99.90;;;;;;5076147;28;20561;-90
2023/09/03 09:29:53;;;;;;;4.28;2.00;;;14.40;99.90;;;;;;5090568;28;20209;-91
2023/09/03 09:32:25;;;;;;;5.35;2.20;;;14.40;99.90;;;;;;5090925;28;20202;-87
2023/09/03 09:34:58;;;;;;;3.30;1.70;;;14.40;99.90;;;;;;5093837;28;20200;-90
2023/09/03 09:37:38;;;;;;;6.55;1.85;;;14.40;99.90;;;;;;5094359;28;20568;-90
2023/09/03 09:40:12;;;;;;;3.47;1.83;;;14.40;99.90;;;;;;5091455;28;20676;-91
2023/09/03 09:42:55;;;;;;;4.05;1.70;;;14.40;99.90;;;;;;5089599;28;20224;-90
2023/09/03 09:45:26;;;;;;;3.35;1.52;;;14.30;99.90;;;;;;5091927;28;20198;-87
2023/09/03 09:48:07;;;;;;;2.22;1.40;;;14.30;99.90;;;;;;5085060;28;20204;-87
2023/09/03 09:50:40;;;;;;;3.10;1.35;;;14.30;99.90;;;;;;5090796;28;20278;-91
2023/09/03 09:53:28;;;;;;;5.25;1.40;;;14.30;99.90;;;;;;5092131;28;20204;-92
2023/09/03 09:56:03;;;;;;;3.15;1.45;;;14.30;99.90;;;;;;5088864;28;20207;-91
2023/09/03 09:58:41;;;;;;;2.03;1.30;;;14.20;99.90;;;;;;5092473;28;20216;-91
2023/09/03 10:01:12;;;;;;;2.85;1.40;;;14.20;99.90;;;;;;5083599;28;20203;-92
2023/09/03 10:03:46;;;;;;;2.38;1.40;;;14.20;99.90;;;;;;5088449;28;20200;-91
2023/09/03 10:06:20;;;;;;;3.10;1.40;;;14.20;99.90;;;;;;5084582;28;20202;-90
2023/09/03 10:08:53;;;;;;;2.92;1.50;;;14.10;99.90;;;;;;5090082;28;20565;-92
2023/09/03 10:11:24;;;;;;;6.85;1.60;;;14.10;99.90;;;;;;5086870;28;20244;-90
2023/09/03 10:13:54;;;;;;;5.18;1.80;;;14.10;99.90;;;;;;5080727;28;20192;-84
2023/09/03 10:16:26;;;;;;;3.17;1.70;;;14.10;99.90;;;;;;5092941;28;20564;-91
2023/09/03 10:19:01;;;;;;;4.38;1.90;;;14.10;99.90;;;;;;5089706;28;20603;-90
2023/09/03 10:21:35;;;;;;;3.45;1.80;;;14.10;99.90;;;;;;5089511;28;20557;-83
2023/09/03 10:24:08;;;;;;;4.47;1.90;;;14.10;99.90;;;;;;5092532;28;20648;-90
2023/09/03 10:26:43;;;;;;;4.90;2.30;;;14.10;99.90;;;;;;5092955;28;20192;-88
2023/09/03 10:29:19;;;;;;;7.05;3.13;;;14.00;99.90;;;;;;5093502;28;20204;-91
2023/09/03 10:31:51;;;;;;;7.30;3.50;;;14.00;99.90;;;;;;5081253;28;20233;-89
2023/09/03 10:34:21;;;;;;;8.07;3.35;;;14.00;99.90;;;;;;5092749;28;20192;-88
2023/09/03 10:37:18;;;;;;;5.65;3.00;;;14.00;99.90;;;;;;5075075;28;20208;-87
2023/09/03 10:39:50;;;;;;;5.32;2.72;;;14.00;99.90;;;;;;5075729;28;20311;-87
2023/09/03 10:42:31;;;;;;;6.63;3.10;;;13.90;99.90;;;;;;5093068;28;20224;-91
2023/09/03 10:45:02;;;;;;;7.63;2.97;;;13.90;99.90;;;;;;5093224;28;20196;-88
2023/09/03 10:48:03;;;;;;;6.05;2.83;;;13.90;99.90;;;;;;5092923;28;20199;-83
2023/09/03 10:50:48;;;;;;;5.57;2.92;;;13.90;99.90;;;;;;5092382;28;20208;-90
2023/09/03 10:53:39;;;;;;;6.40;3.25;;;13.90;99.90;;;;;;5084953;28;20200;-91
2023/09/03 10:56:14;;;;;;;5.10;2.60;;;13.90;99.90;;;;;;5095084;28;20192;-90
2023/09/03 10:58:59;;;;;;;10.70;5.97;;;13.90;99.90;;;;;;5096422;28;20216;-90
2023/09/03 11:01:33;;;;;;;12.25;5.32;;;13.80;99.90;;;;;;5095920;28;20196;-91
2023/09/03 11:04:05;;;;;;;12.88;6.85;;;13.80;99.90;;;;;;5095162;28;20210;-91
2023/09/03 11:06:36;;;;;;;15.13;8.25;;;13.80;99.90;;;;;;5096719;28;20204;-91
2023/09/03 11:09:27;;;;;;;16.35;8.60;;;13.80;99.90;;;;;;5096040;28;20241;-90
2023/09/03 11:12:04;;;;;;;14.48;7.43;;;13.80;99.90;;;;;;5096025;28;20198;-89
2023/09/03 11:14:36;;;;;;;13.65;6.65;;;13.70;99.90;;;;;;5095339;28;20285;-85
2023/09/03 11:17:13;;;;;;;9.63;5.47;;;13.70;99.90;;;;;;5094943;28;20196;-88
2023/09/03 11:19:44;;;;;;;7.68;4.45;;;13.70;99.90;;;;;;5095959;28;20273;-86
2023/09/03 11:22:17;;;;;;;8.25;3.85;;;13.70;99.90;;;;;;5096087;28;20202;-91
2023/09/03 11:24:53;;;;;;;6.65;3.83;;;13.60;99.90;;;;;;5095785;28;20204;-90
2023/09/03 11:27:23;;;;;;;7.75;3.90;;;13.60;99.90;;;;;;5096180;28;20203;-91
2023/09/03 11:30:05;;;;;;;6.25;3.67;;;13.60;99.90;;;;;;5096261;28;20204;-90
2023/09/03 11:32:41;;;;;;;7.40;4.28;;;13.50;99.90;;;;;;5095413;28;20564;-89
2023/09/03 11:35:13;;;;;;;5.55;3.50;;;13.50;99.90;;;;;;5095958;28;20196;-90
2023/09/03 11:37:44;;;;;;;5.80;3.90;;;13.50;99.90;;;;;;5095766;28;20215;-87
2023/09/03 11:40:18;;;;;;;5.97;3.35;;;13.50;99.90;;;;;;5095909;28;20216;-89
2023/09/03 11:42:50;;;;;;;5.93;3.55;;;13.40;99.90;;;;;;5094347;28;20599;-85
2023/09/03 11:45:21;;;;;;;6.18;3.63;;;13.40;99.90;;;;;;5095173;28;20222;-79
2023/09/03 11:47:53;;;;;;;7.15;3.72;;;13.40;99.90;;;;;;5081377;28;20208;-78
2023/09/03 11:50:24;;;;;;;7.35;3.80;;;13.40;99.90;;;;;;5089096;28;20226;-81
2023/09/03 11:52:59;;;;;;;10.32;5.25;;;13.30;99.90;;;;;;5095443;28;20202;-79
2023/09/03 11:55:37;;;;;;;9.27;5.40;;;13.30;99.90;;;;;;5095123;28;20746;-76
2023/09/03 11:58:10;;;;;;;11.55;5.82;;;13.30;99.90;;;;;;5094935;28;20195;-76
2023/09/03 12:00:41;;;;;;;11.15;5.60;;;13.20;99.90;;;;;;5094218;28;20232;-80
2023/09/03 12:03:13;;;;;;;9.18;4.70;;;13.20;99.90;;;;;;5093700;28;20199;-77
2023/09/03 12:05:44;;;;;;;8.25;4.35;;;13.20;99.90;;;;;;5091056;28;20231;-78
2023/09/03 12:08:15;;;;;;;10.88;4.38;;;13.20;99.90;;;;;;5094550;28;20196;-91
2023/09/03 12:10:51;;;;;;;9.95;4.50;;;13.20;99.90;;;;;;5095473;28;20196;-89
2023/09/03 12:13:38;;;;;;;8.90;4.47;;;13.20;99.90;;;;;;5095101;28;20284;-90
2023/09/03 12:16:10;;;;;;;7.35;4.65;;;13.20;99.90;;;;;;5094125;28;20188;-90
2023/09/03 12:18:41;;;;;;;9.40;5.00;;;13.10;99.90;;;;;;5093678;28;20188;-90
2023/09/03 12:21:12;;;;;;;8.63;4.88;;;13.10;99.90;;;;;;5094887;28;20204;-91
2023/09/03 12:23:48;;;;;;;9.73;4.47;;;13.10;99.90;;;;;;5094680;28;20208;-74
2023/09/03 12:26:23;;;;;;;6.32;4.15;;;13.00;99.90;;;;;;5094358;28;20191;-74
2023/09/03 12:28:58;;;;;;;9.48;4.82;;;13.00;99.90;;;;;;5095530;28;20202;-89
2023/09/03 12:31:42;;;;;;;9.70;4.72;;;13.00;99.90;;;;;;5095028;28;20195;-91
2023/09/03 12:34:13;;;;;;;7.18;3.90;;;13.00;99.90;;;;;;5090384;28;20199;-89
2023/09/03 12:36:59;;;;;;;10.48;3.95;;;13.00;99.90;;;;;;5094661;28;20196;-91
2023/09/03 12:39:37;;;;;;;9.57;3.78;;;12.90;99.90;;;;;;5094739;28;20270;-90
2023/09/03 12:42:10;;;;;;;7.30;3.83;;;12.90;99.90;;;;;;5094735;28;20397;-92
2023/09/03 12:44:45;;;;;;;7.00;3.95;;;12.90;99.90;;;;;;5088973;28;20656;-91
2023/09/03 12:47:17;;;;;;;7.88;3.92;;;12.90;99.90;;;;;;5089826;28;20195;-91
2023/09/03 12:49:47;;;;;;;7.45;3.92;;;12.80;99.90;;;;;;5094746;28;20199;-87
2023/09/03 12:52:19;;;;;;;6.80;3.58;;;12.90;99.90;;;;;;5093789;28;20220;-91
2023/09/03 12:54:50;;;;;;;6.00;3.75;;;12.80;99.90;;;;;;5094301;28;20203;-88
2023/09/03 12:57:23;;;;;;;8.15;3.90;;;12.80;99.90;;;;;;5094566;28;20192;-90
2023/09/03 12:59:54;;;;;;;7.57;4.07;;;12.80;99.90;;;;;;5094800;28;20223;-90
2023/09/03 13:02:25;;;;;;;7.60;3.95;;;12.80;99.90;;;;;;5094161;28;20196;-90
2023/09/03 13:04:55;;;;;;;6.90;3.70;;;12.80;99.90;;;;;;5093831;28;20205;-88
2023/09/03 13:07:26;;;;;;;8.50;3.67;;;12.70;99.90;;;;;;5093884;28;20202;-85
2023/09/03 13:09:57;;;;;;;8.93;3.90;;;12.70;99.90;;;;;;5089263;28;20567;-88
2023/09/03 13:12:30;;;;;;;7.18;4.00;;;12.70;99.90;;;;;;5093921;28;20544;-89
2023/09/03 13:15:00;;;;;;;7.57;4.15;;;12.70;99.90;;;;;;5093448;28;20709;-91